Time;durP1;ratioP1;P1;durP2;ratioP2;P2;SDS_P1;SDS_P2;PMS_P1;PMS_P2;Temp;Humidity;BMP_temperature;BMP_pressure;BME280_temperature;BME280_humidity;BME280_pressure;Samples;Min_cycle;Max_cycle;Signal;HPM_P1;HPM_P2
2022/09/06 00:01:26;;;;;;;8.60;2.80;;;16.70;99.90;;;16.01;100.00;101048.81;4185353;28;20021;-80
2022/09/06 00:03:27;;;;;;;7.18;2.90;;;16.70;99.90;;;16.06;100.00;101051.78;4185434;28;20369;-80
2022/09/06 00:05:30;;;;;;;7.07;2.50;;;16.70;99.90;;;16.09;100.00;101051.41;4185337;28;20025;-80
2022/09/06 00:07:31;;;;;;;8.02;2.53;;;16.70;99.90;;;16.16;100.00;101072.78;4181304;28;20025;-80
2022/09/06 00:09:32;;;;;;;10.60;3.03;;;16.70;99.90;;;16.03;100.00;101044.16;4174623;28;20021;-81
2022/09/06 00:11:33;;;;;;;4.82;2.50;;;16.70;99.90;;;15.99;100.00;101040.19;4185326;28;20558;-81
2022/09/06 00:13:34;;;;;;;6.43;2.30;;;16.70;99.90;;;16.09;100.00;101056.72;4184158;28;20116;-81
2022/09/06 00:15:36;;;;;;;7.45;2.75;;;16.70;99.90;;;16.01;100.00;101040.84;4165223;28;20469;-80
2022/09/06 00:17:37;;;;;;;6.25;2.55;;;16.70;99.90;;;16.13;100.00;101051.88;4184247;28;20033;-80
2022/09/06 00:19:38;;;;;;;4.38;2.40;;;16.70;99.90;;;16.02;100.00;101042.50;4184745;28;20040;-80
2022/09/06 00:21:39;;;;;;;7.13;2.10;;;16.70;99.90;;;15.98;100.00;101025.22;4185143;28;20032;-80
2022/09/06 00:23:40;;;;;;;11.82;2.50;;;16.70;99.90;;;16.22;100.00;101062.22;4183760;28;20057;-81
2022/09/06 00:25:41;;;;;;;6.68;2.30;;;16.70;99.90;;;16.11;100.00;101033.41;4177839;28;20025;-80
2022/09/06 00:27:41;;;;;;;5.65;2.17;;;16.80;99.90;;;16.30;100.00;101058.63;4200434;28;20029;-81
2022/09/06 00:29:42;;;;;;;7.80;2.08;;;16.80;99.90;;;16.18;100.00;101023.69;4185116;28;20021;-80
2022/09/06 00:31:43;;;;;;;5.20;2.33;;;16.90;99.90;;;16.37;100.00;101054.22;4183769;28;20484;-80
2022/09/06 00:33:45;;;;;;;6.45;2.13;;;16.90;99.90;;;16.28;100.00;101034.84;4200717;28;20032;-80
2022/09/06 00:35:46;;;;;;;9.40;2.60;;;16.90;99.90;;;16.21;100.00;101020.66;4167302;28;20087;-80
2022/09/06 00:37:47;;;;;;;5.78;2.00;;;16.90;99.90;;;16.14;100.00;101017.06;4185084;28;20036;-80
2022/09/06 00:39:48;;;;;;;10.48;3.00;;;16.90;99.90;;;16.29;100.00;101047.16;4183655;28;20033;-80
2022/09/06 00:41:49;;;;;;;9.90;2.53;;;16.90;99.90;;;16.14;100.00;101030.38;4183739;28;20026;-81
2022/09/06 00:43:50;;;;;;;8.95;2.42;;;16.80;99.90;;;16.22;100.00;101045.44;4183895;28;20404;-80
2022/09/06 00:45:53;;;;;;;6.43;2.40;;;16.90;99.90;;;16.22;100.00;101040.13;4200447;28;20087;-80
2022/09/06 00:47:55;;;;;;;8.38;2.55;;;16.80;99.90;;;16.13;100.00;101025.25;4183894;28;20029;-80
2022/09/06 00:49:58;;;;;;;11.00;2.55;;;16.80;99.90;;;16.18;100.00;101041.50;4183837;28;20094;-80
2022/09/06 00:52:08;;;;;;;9.60;2.92;;;16.80;99.90;;;16.12;100.00;101028.91;4185075;28;20041;-80
2022/09/06 00:54:09;;;;;;;9.20;2.95;;;16.80;99.90;;;15.99;100.00;101013.59;4184699;28;20409;-80
2022/09/06 00:56:11;;;;;;;6.72;1.98;;;16.80;99.90;;;16.03;100.00;101042.31;4184825;28;20550;-80
2022/09/06 00:58:12;;;;;;;9.70;2.17;;;16.70;99.90;;;15.95;100.00;101036.25;4183979;28;20029;-80
2022/09/06 01:00:16;;;;;;;9.93;2.95;;;16.70;99.90;;;15.95;100.00;101046.88;4185171;28;20025;-80
2022/09/06 01:02:16;;;;;;;7.68;2.10;;;16.70;99.90;;;15.89;100.00;101042.31;4183927;28;20040;-80
2022/09/06 01:04:18;;;;;;;10.18;2.83;;;16.60;99.90;;;15.87;100.00;101045.16;4167342;28;20117;-80
2022/09/06 01:06:19;;;;;;;6.72;2.42;;;16.60;99.90;;;16.02;100.00;101061.13;4184080;28;20036;-80
2022/09/06 01:09:15;;;;;;;15.63;2.65;;;16.60;99.90;;;16.00;100.00;101081.78;4184700;28;20033;-80
2022/09/06 01:12:10;;;;;;;9.07;2.65;;;16.60;99.90;;;15.81;100.00;101048.56;4179545;28;20037;-81
2022/09/06 01:14:49;;;;;;;6.82;1.80;;;16.60;99.90;;;16.02;100.00;101066.44;4183828;28;20618;-80
2022/09/06 01:17:12;;;;;;;8.40;2.30;;;16.60;99.90;;;16.03;100.00;101065.44;4153828;28;20503;-80
2022/09/06 01:19:57;;;;;;;8.83;3.03;;;16.60;99.90;;;16.02;100.00;101063.78;4185043;28;20033;-80
2022/09/06 01:22:43;;;;;;;10.50;2.75;;;16.60;99.90;;;15.93;100.00;101035.63;4184529;28;20025;-80
2022/09/06 01:26:04;;;;;;;7.20;2.38;;;16.60;99.90;;;15.90;100.00;101030.66;4183369;28;20534;-80
2022/09/06 01:28:43;;;;;;;14.30;2.78;;;16.60;99.90;;;16.00;100.00;101037.38;4087968;28;20035;-80
2022/09/06 01:30:59;;;;;;;7.72;3.13;;;16.60;99.90;;;15.95;100.00;101028.25;4184991;28;20048;-80
2022/09/06 01:33:20;;;;;;;15.10;2.40;;;16.60;99.90;;;15.92;100.00;101024.16;4176163;28;20072;-80
2022/09/06 01:35:34;;;;;;;8.20;2.70;;;16.50;99.90;;;15.99;100.00;101035.72;4175347;28;20524;-80
2022/09/06 01:37:35;;;;;;;11.57;2.60;;;16.50;99.90;;;15.84;100.00;101020.75;4186274;28;20032;-80
2022/09/06 01:39:39;;;;;;;10.50;3.05;;;16.60;99.90;;;16.00;100.00;101037.38;4187246;28;20051;-80
2022/09/06 01:41:40;;;;;;;6.17;2.73;;;16.50;99.90;;;15.85;100.00;101014.44;4186511;28;20041;-80
2022/09/06 01:43:47;;;;;;;9.13;2.42;;;16.60;99.90;;;15.98;100.00;101038.53;4187565;28;20268;-80
2022/09/06 01:46:41;;;;;;;10.07;2.67;;;16.60;99.90;;;16.00;100.00;101044.53;4187837;28;20365;-80
2022/09/06 01:49:17;;;;;;;14.23;2.88;;;16.60;99.90;;;16.01;100.00;101040.84;4189753;28;20032;-80
2022/09/06 01:52:05;;;;;;;10.82;2.78;;;16.60;99.90;;;16.03;100.00;101037.00;4174427;28;20553;-80
2022/09/06 01:54:21;;;;;;;9.23;2.35;;;16.60;99.90;;;15.93;100.00;101020.47;4187138;28;20174;-81
2022/09/06 01:56:58;;;;;;;14.65;2.60;;;16.60;99.90;;;16.04;100.00;101045.78;4182172;28;20520;-80
2022/09/06 01:59:52;;;;;;;9.15;2.60;;;16.60;99.90;;;16.03;100.00;101047.66;4182670;28;20198;-80
2022/09/06 02:02:04;;;;;;;8.45;2.55;;;16.60;99.90;;;15.94;100.00;101037.28;4191810;28;20067;-80
2022/09/06 02:04:26;;;;;;;10.75;2.67;;;16.60;99.90;;;15.83;100.00;101019.91;4185892;28;20122;-80
2022/09/06 02:06:34;;;;;;;8.98;2.10;;;16.60;99.90;;;15.95;100.00;101047.72;4169256;28;20028;-80
2022/09/06 02:08:45;;;;;;;12.70;2.90;;;16.60;99.90;;;15.89;100.00;101039.63;4174537;28;20033;-80
2022/09/06 02:11:14;;;;;;;9.57;2.42;;;16.50;99.90;;;15.77;100.00;101027.84;4185429;28;20528;-80
2022/09/06 02:13:18;;;;;;;9.27;2.95;;;16.50;99.90;;;15.88;100.00;101043.31;4199533;28;20479;-80
2022/09/06 02:15:44;;;;;;;9.63;2.50;;;16.50;99.90;;;15.79;100.00;101023.16;4186055;28;20409;-81
2022/09/06 02:17:57;;;;;;;10.35;3.00;;;16.50;99.90;;;15.70;100.00;101003.78;4185856;28;20041;-80
2022/09/06 02:20:08;;;;;;;10.05;1.95;;;16.50;99.90;;;15.88;100.00;101044.16;4186358;28;20029;-80
2022/09/06 02:22:13;;;;;;;10.27;2.95;;;16.50;99.90;;;15.69;100.00;101023.41;4201388;28;20151;-80
2022/09/06 02:24:24;;;;;;;7.97;2.67;;;16.40;99.90;;;15.76;100.00;101040.31;4185663;28;20025;-81
2022/09/06 02:26:31;;;;;;;14.27;3.70;;;16.40;99.90;;;15.63;100.00;101012.66;4175192;28;20033;-80
2022/09/06 02:28:32;;;;;;;11.32;3.20;;;16.40;99.90;;;15.81;100.00;101047.72;4185774;28;20017;-80
2022/09/06 02:30:44;;;;;;;13.48;3.03;;;16.40;99.90;;;15.68;100.00;101031.59;4186843;28;20061;-80
2022/09/06 02:33:11;;;;;;;14.43;3.35;;;16.40;99.90;;;15.71;100.00;101036.53;4187063;28;20083;-80
2022/09/06 02:35:15;;;;;;;12.07;3.53;;;16.40;99.90;;;15.62;100.00;101033.09;4186189;28;20067;-80
2022/09/06 02:37:17;;;;;;;13.43;2.92;;;16.40;99.90;;;15.57;100.00;101024.03;4201925;28;20024;-80
2022/09/06 02:39:18;;;;;;;7.75;2.95;;;16.40;99.90;;;15.65;100.00;101031.94;4185190;28;20065;-80
2022/09/06 02:41:21;;;;;;;10.63;3.00;;;16.40;99.90;;;15.64;100.00;101033.78;4186123;28;20373;-80
2022/09/06 02:43:22;;;;;;;12.05;3.00;;;16.40;99.90;;;15.65;100.00;101031.94;4185630;28;20029;-80
2022/09/06 02:45:23;;;;;;;15.77;3.58;;;16.40;99.90;;;15.76;100.00;101045.63;4186527;28;20029;-81
2022/09/06 02:47:24;;;;;;;15.63;3.65;;;16.40;99.90;;;15.86;100.00;101056.78;4186531;28;20396;-81
2022/09/06 02:49:25;;;;;;;12.23;3.15;;;16.50;99.90;;;15.80;100.00;101035.44;4186358;28;20048;-80
2022/09/06 02:51:26;;;;;;;17.25;3.90;;;16.50;99.90;;;15.90;100.00;101042.13;4185441;28;20059;-81
2022/09/06 02:53:27;;;;;;;14.38;3.80;;;16.60;99.90;;;15.94;100.00;101026.63;4186345;28;20366;-81
2022/09/06 02:55:28;;;;;;;14.23;3.55;;;16.60;99.90;;;16.06;100.00;101035.81;4186460;28;20084;-81
2022/09/06 02:57:29;;;;;;;17.23;4.18;;;16.70;99.90;;;16.26;100.00;101052.84;4186363;28;20064;-81
2022/09/06 02:59:29;;;;;;;18.88;4.05;;;16.80;99.90;;;16.11;100.00;101019.28;4186315;28;20041;-81
2022/09/06 03:01:31;;;;;;;23.98;4.10;;;16.90;99.90;;;16.39;100.00;101050.38;4186235;28;20025;-81
2022/09/06 03:03:32;;;;;;;13.18;3.10;;;17.00;99.90;;;16.30;100.00;101035.50;4185069;28;20025;-81
2022/09/06 03:05:34;;;;;;;14.20;3.17;;;17.00;99.90;;;16.39;100.00;101036.22;4186207;28;20032;-81
2022/09/06 03:07:35;;;;;;;12.20;3.78;;;17.10;99.90;;;16.63;100.00;101059.06;4181908;28;20619;-80
2022/09/06 03:09:35;;;;;;;12.00;3.13;;;17.20;99.90;;;16.56;100.00;101035.84;4164942;28;20021;-81
2022/09/06 03:11:37;;;;;;;15.18;4.10;;;17.30;99.90;;;16.77;100.00;101059.03;4184890;28;20049;-80
2022/09/06 03:13:37;;;;;;;11.13;3.05;;;17.30;99.90;;;16.82;100.00;101051.28;4186137;28;20080;-81
2022/09/06 03:15:38;;;;;;;17.02;2.90;;;17.40;99.90;;;16.86;100.00;101051.75;4186069;28;20033;-81
2022/09/06 03:17:40;;;;;;;16.83;3.05;;;17.40;99.90;;;16.79;100.00;101038.34;4186409;28;20082;-81
2022/09/06 03:19:41;;;;;;;14.60;3.10;;;17.40;99.90;;;16.81;100.00;101040.84;4185006;28;20033;-80
2022/09/06 03:21:42;;;;;;;14.48;4.00;;;17.50;99.90;;;16.78;100.00;101027.88;4185886;28;20029;-80
2022/09/06 03:23:44;;;;;;;20.35;4.10;;;17.50;99.90;;;16.70;100.00;101020.00;4185490;28;20052;-80
2022/09/06 03:25:45;;;;;;;22.25;3.53;;;17.50;99.90;;;16.74;100.00;101023.94;4168440;28;20512;-81
2022/09/06 03:27:46;;;;;;;19.20;5.03;;;17.50;99.90;;;16.73;100.00;101016.94;4184734;28;20036;-80
2022/09/06 03:29:48;;;;;;;16.13;3.65;;;17.50;99.90;;;16.89;100.00;101035.38;4184561;28;20020;-80
2022/09/06 03:31:48;;;;;;;18.88;4.07;;;17.50;99.90;;;16.93;100.00;101042.00;4185719;28;20029;-80
2022/09/06 03:33:49;;;;;;;19.73;3.38;;;17.50;99.90;;;16.99;100.00;101038.56;4185370;28;20032;-81
2022/09/06 03:35:57;;;;;;;19.83;4.07;;;17.50;99.90;;;16.98;100.00;101037.72;4177139;28;20028;-80
2022/09/06 03:37:58;;;;;;;17.17;3.00;;;17.60;99.90;;;17.03;100.00;101045.16;4184494;28;20504;-81
2022/09/06 03:39:58;;;;;;;19.63;3.78;;;17.60;99.90;;;16.91;100.00;101007.50;4184250;28;20049;-80
2022/09/06 03:41:59;;;;;;;18.60;4.10;;;17.60;99.90;;;16.94;100.00;101008.97;4184486;28;20025;-80
2022/09/06 03:44:01;;;;;;;21.52;4.40;;;17.70;99.90;;;17.00;100.00;101014.38;4167799;28;20519;-80
2022/09/06 03:46:01;;;;;;;20.20;3.60;;;17.70;99.90;;;17.07;100.00;101020.59;4200414;28;20034;-80
2022/09/06 03:48:02;;;;;;;16.23;3.33;;;17.70;99.90;;;17.08;100.00;101016.91;4170840;28;20032;-80
2022/09/06 03:50:05;;;;;;;23.42;4.55;;;17.80;99.90;;;17.28;100.00;101025.09;4185852;28;20527;-81
2022/09/06 03:52:06;;;;;;;18.85;3.17;;;17.80;99.90;;;17.33;100.00;101029.81;4184550;28;20036;-80
2022/09/06 03:54:07;;;;;;;14.75;3.42;;;17.90;99.90;;;17.19;100.00;101010.25;4184667;28;20037;-80
2022/09/06 03:56:08;;;;;;;25.05;3.63;;;17.90;99.90;;;17.21;100.00;101010.03;4185373;28;20480;-81
2022/09/06 03:58:09;;;;;;;17.10;3.00;;;17.90;99.90;;;17.19;100.00;101022.72;4185546;28;20047;-81
2022/09/06 04:00:11;;;;;;;14.82;4.32;;;17.90;99.90;;;17.17;100.00;101009.63;4200902;28;20028;-80
2022/09/06 04:02:11;;;;;;;17.15;3.42;;;17.90;99.90;;;17.16;100.00;101010.63;4200574;28;20031;-81
2022/09/06 04:04:12;;;;;;;15.65;3.40;;;17.90;99.90;;;17.13;100.00;101008.34;4185469;28;20400;-80
2022/09/06 04:06:13;;;;;;;21.10;4.45;;;17.90;99.90;;;17.16;100.00;101005.28;4184449;28;20083;-81
2022/09/06 04:08:14;;;;;;;18.60;3.65;;;17.90;99.90;;;17.15;100.00;101011.63;4191810;28;20035;-81
2022/09/06 04:10:16;;;;;;;23.45;3.95;;;17.80;99.90;;;17.14;100.00;101004.66;4185402;28;20041;-80
2022/09/06 04:12:16;;;;;;;17.98;3.33;;;17.80;99.90;;;17.07;100.00;101003.78;4184024;28;20029;-81
2022/09/06 04:14:19;;;;;;;12.95;2.92;;;17.80;99.90;;;17.23;100.00;101026.69;4185232;28;20060;-80
2022/09/06 04:16:19;;;;;;;13.90;2.70;;;17.80;99.90;;;17.25;100.00;101021.97;4185260;28;20456;-80
2022/09/06 04:18:21;;;;;;;12.65;2.88;;;17.80;99.90;;;17.11;100.00;100991.72;4185380;28;20091;-80
2022/09/06 04:20:22;;;;;;;17.35;3.17;;;17.80;99.90;;;17.12;100.00;101001.34;4183869;28;20028;-80
2022/09/06 04:22:23;;;;;;;18.17;3.33;;;17.80;99.90;;;17.15;100.00;101011.63;4185119;28;20082;-80
2022/09/06 04:24:24;;;;;;;15.77;2.72;;;17.80;99.90;;;17.09;100.00;100996.41;4183241;28;20515;-80
2022/09/06 04:26:25;;;;;;;18.83;3.50;;;17.80;99.90;;;17.15;100.00;101004.47;4185079;28;20480;-80
2022/09/06 04:28:26;;;;;;;17.23;3.58;;;17.80;99.90;;;17.14;100.00;100994.00;4200515;28;20021;-80
2022/09/06 04:30:27;;;;;;;23.88;4.07;;;17.80;99.90;;;17.16;100.00;100986.63;4167397;28;20028;-81
2022/09/06 04:32:28;;;;;;;11.02;2.72;;;17.90;99.90;;;17.19;100.00;100991.56;4185132;28;20029;-81
2022/09/06 04:34:29;;;;;;;16.73;3.55;;;17.90;99.90;;;17.30;100.00;101014.22;4185297;28;20037;-81
2022/09/06 04:36:30;;;;;;;22.60;4.00;;;17.90;99.90;;;17.17;100.00;100986.41;4184888;28;20032;-81
2022/09/06 04:38:37;;;;;;;20.27;3.53;;;17.90;99.90;;;17.13;100.00;100981.69;4184910;28;20033;-81
2022/09/06 04:40:38;;;;;;;18.90;4.38;;;17.80;99.90;;;17.13;100.00;100977.19;4184923;28;20492;-80
2022/09/06 04:42:39;;;;;;;15.43;3.35;;;17.80;99.90;;;17.30;100.00;100995.53;4183743;28;20064;-80
2022/09/06 04:44:40;;;;;;;16.45;3.47;;;17.90;99.90;;;17.13;100.00;100973.69;4183560;28;20025;-81
2022/09/06 04:46:41;;;;;;;17.17;3.60;;;17.80;99.90;;;17.17;100.00;100961.63;4183624;28;20029;-81
2022/09/06 04:48:42;;;;;;;17.92;3.97;;;17.80;99.90;;;17.21;100.00;100967.38;4183624;28;20021;-81
2022/09/06 04:50:43;;;;;;;16.95;3.90;;;17.80;99.90;;;17.18;100.00;100957.94;4183936;28;20029;-80
2022/09/06 04:52:44;;;;;;;17.25;3.85;;;17.90;99.90;;;17.14;100.00;100959.34;4184866;28;20044;-81
2022/09/06 04:54:45;;;;;;;17.02;3.72;;;17.90;99.90;;;17.15;100.00;100963.63;4184763;28;20037;-81
2022/09/06 04:56:46;;;;;;;17.73;3.60;;;17.90;99.90;;;17.18;100.00;100960.59;4185060;28;20032;-81
2022/09/06 04:58:48;;;;;;;17.55;4.03;;;17.90;99.90;;;17.17;100.00;100961.63;4185103;28;20037;-81
2022/09/06 05:00:50;;;;;;;19.17;3.88;;;17.90;99.90;;;17.20;100.00;100952.41;4184733;28;20036;-81
2022/09/06 05:02:51;;;;;;;17.98;3.65;;;17.90;99.90;;;17.16;100.00;100951.97;4184881;28;20079;-81
2022/09/06 05:04:53;;;;;;;16.25;3.53;;;17.90;99.90;;;17.20;100.00;100966.56;4186122;28;20029;-81
2022/09/06 05:07:05;;;;;;;17.63;3.83;;;17.90;99.90;;;17.33;100.00;100990.66;4188124;28;20469;-81
2022/09/06 05:09:06;;;;;;;14.20;3.38;;;17.90;99.90;;;17.16;100.00;100959.97;4187604;28;20447;-81
2022/09/06 05:11:08;;;;;;;17.10;3.92;;;17.90;99.90;;;17.20;100.00;100968.41;4186657;28;20045;-81
2022/09/06 05:13:09;;;;;;;16.52;4.18;;;17.90;99.90;;;17.23;100.00;100973.34;4186807;28;20036;-81
2022/09/06 05:15:10;;;;;;;12.93;2.65;;;17.90;99.90;;;17.23;100.00;100976.84;4187929;28;20036;-81
2022/09/06 05:17:13;;;;;;;15.63;3.00;;;17.90;99.90;;;17.18;100.00;100960.59;4186668;28;20111;-81
2022/09/06 05:19:15;;;;;;;18.50;3.17;;;17.90;99.90;;;17.16;100.00;100962.63;4186772;28;20027;-81
2022/09/06 05:21:15;;;;;;;18.55;3.33;;;17.80;99.90;;;17.10;100.00;100966.91;4203312;28;20021;-81
2022/09/06 05:23:16;;;;;;;11.40;2.25;;;17.80;99.90;;;17.00;100.00;100958.41;4186024;28;20035;-81
2022/09/06 05:25:17;;;;;;;15.90;2.65;;;17.80;99.90;;;16.97;100.00;100960.63;4187455;28;20043;-81
2022/09/06 05:27:18;;;;;;;17.00;3.60;;;17.70;99.90;;;16.92;100.00;100958.53;4186551;28;20032;-81
2022/09/06 05:29:19;;;;;;;11.27;2.55;;;17.70;99.90;;;17.03;100.00;100983.84;4186571;28;20045;-81
2022/09/06 05:31:26;;;;;;;14.80;2.80;;;17.60;99.90;;;17.00;100.00;100986.88;4187479;28;20096;-81
2022/09/06 05:33:27;;;;;;;16.63;3.47;;;17.60;99.90;;;16.97;100.00;100976.59;4187516;28;20032;-81
2022/09/06 05:35:27;;;;;;;14.15;3.25;;;17.60;99.90;;;16.74;100.00;100952.00;4186386;28;20033;-81
2022/09/06 05:37:28;;;;;;;12.60;3.35;;;17.50;99.90;;;16.67;100.00;100956.44;4203120;28;20024;-81
2022/09/06 05:39:30;;;;;;;13.30;2.65;;;17.50;99.90;;;16.63;100.00;100964.00;4182628;28;20142;-81
2022/09/06 05:41:31;;;;;;;12.25;2.78;;;17.40;99.90;;;16.70;100.00;100974.72;4187275;28;20025;-81
2022/09/06 05:43:32;;;;;;;19.05;4.65;;;17.40;99.90;;;16.67;100.00;100975.09;4187560;28;20061;-81
2022/09/06 05:45:33;;;;;;;16.98;2.95;;;17.40;99.90;;;16.61;100.00;100971.34;4187555;28;20032;-81
2022/09/06 05:47:34;;;;;;;11.10;3.03;;;17.30;99.90;;;16.79;100.00;101000.22;4187445;28;20075;-81
2022/09/06 05:49:35;;;;;;;14.15;2.97;;;17.40;99.90;;;16.62;100.00;100973.00;4187283;28;20021;-81
2022/09/06 05:51:36;;;;;;;12.95;2.40;;;17.30;99.90;;;16.69;100.00;100983.75;4186397;28;20500;-81
2022/09/06 05:53:40;;;;;;;10.25;2.88;;;17.40;99.90;;;16.81;100.00;101000.88;4183062;28;20392;-81
2022/09/06 05:55:41;;;;;;;9.95;2.78;;;17.40;99.90;;;16.84;100.00;100996.00;4191984;28;20060;-81
2022/09/06 05:57:42;;;;;;;8.93;1.85;;;17.40;99.90;;;16.84;100.00;100982.66;4184258;28;20029;-81
2022/09/06 05:59:43;;;;;;;10.00;2.25;;;17.40;99.90;;;16.74;100.00;100960.00;4187295;28;20075;-81
2022/09/06 06:01:49;;;;;;;14.43;2.95;;;17.50;99.90;;;16.86;100.00;100966.47;4186006;28;20056;-81
2022/09/06 06:04:03;;;;;;;9.27;1.90;;;17.50;99.90;;;16.87;100.00;100949.47;4187358;28;20072;-81
2022/09/06 06:06:04;;;;;;;8.10;2.30;;;17.60;99.90;;;16.90;100.00;100959.75;4186437;28;20419;-81
2022/09/06 06:08:05;;;;;;;14.80;2.83;;;17.60;99.90;;;16.96;100.00;100964.31;4178303;28;20033;-81
2022/09/06 06:10:07;;;;;;;10.98;2.40;;;17.70;99.90;;;16.90;100.00;100963.25;4180214;28;20044;-81
2022/09/06 06:12:08;;;;;;;8.57;2.30;;;17.70;99.90;;;16.96;100.00;100974.97;4185787;28;20396;-81
2022/09/06 06:14:09;;;;;;;10.60;2.17;;;17.70;99.90;;;17.07;100.00;100993.13;4185672;28;20032;-81
2022/09/06 06:16:13;;;;;;;10.60;2.28;;;17.70;99.90;;;17.06;100.00;100991.44;4201673;28;20102;-81
2022/09/06 06:18:14;;;;;;;10.35;2.60;;;17.70;99.90;;;17.17;100.00;100990.97;4202353;28;20032;-81
2022/09/06 06:20:15;;;;;;;11.55;2.75;;;17.70;99.90;;;17.06;100.00;100954.13;4186816;28;20029;-81
2022/09/06 06:22:16;;;;;;;8.75;2.08;;;17.80;99.90;;;17.37;100.00;100977.75;4186907;28;20439;-81
2022/09/06 06:24:18;;;;;;;12.45;3.30;;;17.90;99.90;;;17.31;100.00;100946.53;4185627;28;20053;-81
2022/09/06 06:26:19;;;;;;;8.43;2.58;;;18.00;99.90;;;17.43;100.00;100951.16;4180466;28;20021;-81
2022/09/06 06:28:20;;;;;;;12.25;2.65;;;18.00;99.90;;;17.46;100.00;100952.59;4185478;28;20035;-81
2022/09/06 06:30:21;;;;;;;9.45;2.42;;;18.10;99.90;;;17.59;100.00;100977.53;4186877;28;20021;-81
2022/09/06 06:32:22;;;;;;;7.88;2.40;;;18.10;99.90;;;17.62;100.00;100977.13;4186758;28;20103;-81
2022/09/06 06:34:23;;;;;;;9.77;2.80;;;18.20;99.90;;;17.65;100.00;100973.28;4185541;28;20025;-81
2022/09/06 06:36:26;;;;;;;9.27;2.15;;;18.20;99.90;;;17.61;100.00;100962.16;4185635;28;20164;-81
2022/09/06 06:38:38;;;;;;;11.02;2.50;;;18.20;99.90;;;17.46;100.00;100950.75;4186465;28;20029;-81
2022/09/06 06:40:38;;;;;;;12.15;2.90;;;18.20;99.90;;;17.54;100.00;100977.28;4185501;28;20112;-81
2022/09/06 06:42:39;;;;;;;11.20;2.42;;;18.10;99.90;;;17.40;100.00;100958.72;4185177;28;20033;-81
2022/09/06 06:44:40;;;;;;;18.13;2.78;;;18.10;99.90;;;17.33;100.00;100937.31;4186637;28;20028;-81
2022/09/06 06:46:41;;;;;;;10.02;2.90;;;18.10;99.90;;;17.42;100.00;100935.31;4168900;28;20046;-80
2022/09/06 06:48:44;;;;;;;13.10;2.03;;;18.10;99.90;;;17.51;100.00;100942.97;4186515;28;20028;-81
2022/09/06 06:50:45;;;;;;;10.82;2.25;;;18.20;99.90;;;17.55;100.00;100938.94;4185134;28;20029;-81
2022/09/06 06:52:46;;;;;;;11.68;2.38;;;18.20;99.90;;;17.67;100.00;100939.22;4186299;28;20033;-81
2022/09/06 06:54:48;;;;;;;10.57;2.33;;;18.30;99.90;;;17.75;100.00;100932.88;4184794;28;20048;-81
2022/09/06 06:56:49;;;;;;;10.10;2.40;;;18.40;99.90;;;17.84;100.00;100932.50;4185051;28;20118;-81
2022/09/06 06:58:54;;;;;;;10.45;2.00;;;18.50;99.90;;;17.98;100.00;100933.41;4186562;28;20053;-81
2022/09/06 07:00:55;;;;;;;9.13;2.60;;;18.60;99.90;;;18.11;100.00;100928.09;4185002;28;20041;-81
2022/09/06 07:02:56;;;;;;;15.48;2.30;;;18.70;99.90;;;18.17;100.00;100937.97;4185382;28;20025;-81
2022/09/06 07:04:57;;;;;;;12.05;3.15;;;18.80;99.90;;;18.34;100.00;100952.59;4184889;28;20484;-81
2022/09/06 07:06:58;;;;;;;12.27;2.75;;;18.80;99.90;;;18.39;100.00;100950.19;4186278;28;20418;-81
2022/09/06 07:08:58;;;;;;;11.07;2.35;;;18.90;99.90;;;18.51;100.00;100956.59;4185768;28;20079;-81
2022/09/06 07:11:00;;;;;;;13.95;2.53;;;18.90;99.90;;;18.39;100.00;100934.16;4184758;28;20153;-81
2022/09/06 07:13:01;;;;;;;18.65;3.35;;;19.00;99.90;;;18.43;100.00;100931.91;4186187;28;20033;-81
2022/09/06 07:15:02;;;;;;;15.00;2.83;;;19.00;99.90;;;18.58;100.00;100948.59;4184693;28;20032;-82
2022/09/06 07:17:03;;;;;;;12.07;1.85;;;19.10;99.90;;;18.55;100.00;100949.81;4184719;28;20567;-81
2022/09/06 07:19:04;;;;;;;10.30;2.15;;;19.20;99.90;;;18.57;100.00;100939.78;4186015;28;20021;-81
2022/09/06 07:21:05;;;;;;;9.38;2.58;;;19.20;99.90;;;18.49;100.00;100934.59;4185975;28;20043;-82
2022/09/06 07:23:06;;;;;;;12.25;2.20;;;19.20;99.90;;;18.61;100.00;100943.66;4185983;28;20021;-82
2022/09/06 07:25:08;;;;;;;12.80;3.05;;;19.20;99.90;;;18.68;100.00;100935.66;4185716;28;20107;-82
2022/09/06 07:27:09;;;;;;;10.02;2.58;;;19.30;99.90;;;18.91;100.00;100938.75;4180635;28;20584;-81
2022/09/06 07:29:10;;;;;;;15.82;3.45;;;19.40;99.90;;;18.86;100.00;100919.00;4184866;28;20037;-82
2022/09/06 07:31:11;;;;;;;13.98;3.00;;;19.50;99.90;;;18.90;100.00;100917.59;4186043;28;20025;-82
2022/09/06 07:33:12;;;;;;;12.60;3.30;;;19.50;99.90;;;18.76;100.00;100906.06;4184671;28;20029;-82
2022/09/06 07:35:13;;;;;;;13.10;3.10;;;19.50;99.90;;;18.80;100.00;100912.66;4185872;28;20024;-82
2022/09/06 07:37:15;;;;;;;12.25;3.80;;;19.50;99.90;;;18.66;100.00;100909.16;4184561;28;20526;-82
2022/09/06 07:39:15;;;;;;;14.00;3.15;;;19.40;99.90;;;18.62;100.00;100894.56;4200796;28;20046;-82
2022/09/06 07:41:18;;;;;;;17.02;3.40;;;19.40;99.90;;;18.77;100.00;100913.88;4184780;28;20111;-82
2022/09/06 07:43:19;;;;;;;18.70;4.18;;;19.40;99.90;;;18.63;100.00;100896.19;4184452;28;20032;-81
2022/09/06 07:45:20;;;;;;;22.02;4.18;;;19.40;99.90;;;18.70;100.00;100923.72;4191846;28;20082;-82
2022/09/06 07:47:21;;;;;;;24.35;6.18;;;19.40;99.90;;;18.83;100.00;100940.81;4191790;28;20021;-82
2022/09/06 07:49:21;;;;;;;20.48;3.83;;;19.50;99.90;;;18.57;100.00;100934.44;4185539;28;20435;-81
2022/09/06 07:51:22;;;;;;;15.88;3.65;;;19.40;99.90;;;18.57;100.00;100971.00;4184495;28;20053;-82
2022/09/06 07:53:23;;;;;;;30.27;7.25;;;19.20;99.90;;;18.32;100.00;100983.22;4185462;28;20068;-81
2022/09/06 07:55:24;;;;;;;15.93;4.25;;;19.00;99.90;;;17.83;100.00;100920.19;4185409;28;20162;-82
2022/09/06 07:57:25;;;;;;;14.20;3.30;;;18.80;99.90;;;17.83;100.00;100952.19;4185550;28;20032;-82
2022/09/06 07:59:26;;;;;;;12.18;2.95;;;18.60;99.90;;;17.68;100.00;100928.31;4184004;28;20029;-83
2022/09/06 08:01:33;;;;;;;12.93;3.10;;;18.50;99.90;;;17.63;100.00;100925.44;4184376;28;20119;-83
2022/09/06 08:03:34;;;;;;;10.65;3.05;;;18.40;99.90;;;17.60;100.00;100957.00;4184286;28;20033;-83
2022/09/06 08:05:34;;;;;;;11.18;2.90;;;18.30;99.90;;;17.64;100.00;100972.44;4185367;28;20032;-81
2022/09/06 08:07:35;;;;;;;17.13;3.03;;;18.30;99.90;;;17.58;100.00;100993.75;4181116;28;20088;-78
2022/09/06 08:09:36;;;;;;;3.67;1.27;;;18.20;99.90;;;17.27;100.00;100975.44;4173892;28;20025;-79
2022/09/06 08:11:38;;;;;;;5.32;1.73;;;18.10;99.90;;;17.17;100.00;100960.81;4167632;28;20087;-79
2022/09/06 08:13:39;;;;;;;8.10;0.90;;;18.00;99.90;;;17.22;100.00;100977.84;4151281;28;20029;-77
2022/09/06 08:15:40;;;;;;;5.80;1.10;;;17.80;99.90;;;17.16;100.00;101010.63;4151208;28;20029;-80
2022/09/06 08:17:40;;;;;;;4.97;0.80;;;17.80;99.90;;;17.03;100.00;100989.16;4152491;28;20494;-78
2022/09/06 08:19:41;;;;;;;5.20;0.98;;;17.70;99.90;;;16.95;100.00;100994.66;4134899;28;20022;-79
2022/09/06 08:21:42;;;;;;;9.15;1.88;;;17.70;99.90;;;17.05;100.00;100995.94;4151053;28;20033;-79
2022/09/06 08:24:08;;;;;;;6.40;1.48;;;17.60;99.90;;;17.06;100.00;101002.13;4152131;28;20029;-79
2022/09/06 08:26:09;;;;;;;6.80;1.02;;;17.60;99.90;;;16.98;100.00;101004.91;4148661;28;20072;-78
2022/09/06 08:28:10;;;;;;;3.28;0.80;;;17.50;99.90;;;16.87;100.00;101008.09;4148369;28;20034;-78
2022/09/06 08:30:11;;;;;;;7.88;1.73;;;17.50;99.90;;;16.78;100.00;100998.59;4151060;28;20037;-78